Terminal Aerodrome Forecast
Issued by NWS

Home | Current Version | Previous Version | Text Only | Print | Product List | Glossary Off
Versions: 1 2 3 4 5 6 7 8 9 10 11 12 13 14 15

903
FTUS43 KMPX 181138
TAFRWF
TAF
KRWF 181138Z 1812/1912 02008KT P6SM VCSH OVC035
     FM181500 02010KT 2SM -SN BR OVC015
     FM181800 36010KT 3SM -SN BR OVC010
     FM182200 35011KT P6SM OVC015
     FM190200 34008KT P6SM OVC040
     FM190800 32004KT P6SM SCT200=

USA.gov is the U.S. government's official web portal to all federal, state and local government web resources and services.